Погода Фейжона неделю

Акри, Бразилия

14 - 20 июля
  • 14июля
    Сегодня
    +17°
    +28°
    Ясно и безоблачно
    ВремяПогодаТемператураВлажностьДавлениеВетер, м/сВероятность осадков
    01:00Облачно с прояснениями+18°C82 %746 мм2.3 м/с5 %
    04:00Практически безоблачно+17°C80 %746 мм2.8 м/с5 %
    07:00Ясно и безоблачно+17°C79 %747 мм2.3 м/с5 %
    10:00Практически безоблачно+21°C58 %747 мм2.9 м/с5 %
    13:00Ясно и безоблачно+26°C50 %745 мм2.6 м/с5 %
    16:00Ясно и безоблачно+26°C56 %744 мм2.0 м/с5 %
    19:00Ясно и безоблачно+25°C79 %744 мм1.6 м/с5 %
    22:00Ясно и безоблачно+19°C83 %745 мм2.1 м/с5 %
  • 15июля
    Понедельник
    +16°
    +29°
    Ясно и безоблачно
    ВремяПогодаТемператураВлажностьДавлениеВетер, м/сВероятность осадков
    01:00Ясно и безоблачно+18°C84 %745 мм2.4 м/с5 %
    04:00Ясно и безоблачно+17°C82 %746 мм2.7 м/с5 %
    07:00Ясно и безоблачно+17°C80 %747 мм2.7 м/с5 %
    10:00Ясно и безоблачно+22°C57 %748 мм3.1 м/с5 %
    13:00Ясно и безоблачно+27°C49 %746 мм2.6 м/с5 %
    16:00Ясно и безоблачно+27°C55 %744 мм2.0 м/с5 %
    19:00Ясно и безоблачно+25°C78 %745 мм2.0 м/с5 %
    22:00Ясно и безоблачно+19°C82 %746 мм2.0 м/с5 %
  • 16июля
    Вторник
    +16°
    +29°
    Ясно и безоблачно
    ВремяПогодаТемператураВлажностьДавлениеВетер, м/сВероятность осадков
    01:00Ясно и безоблачно+18°C81 %746 мм2.4 м/с5 %
    04:00Ясно и безоблачно+17°C85 %746 мм2.6 м/с5 %
    07:00Ясно и безоблачно+17°C82 %747 мм2.6 м/с5 %
    10:00Ясно и безоблачно+23°C58 %748 мм2.6 м/с5 %
    13:00Ясно и безоблачно+28°C49 %746 мм2.2 м/с5 %
    16:00Ясно и безоблачно+27°C55 %744 мм1.7 м/с5 %
    19:00Ясно и безоблачно+26°C78 %745 мм1.8 м/с5 %
    22:00Ясно и безоблачно+20°C78 %746 мм2.2 м/с5 %
  • 17июля
    Среда
    +16°
    +31°
    Ясно и безоблачно
    ВремяПогодаТемператураВлажностьДавлениеВетер, м/сВероятность осадков
    01:00Ясно и безоблачно+18°C85 %745 мм2.4 м/с5 %
    04:00Ясно и безоблачно+17°C88 %745 мм1.7 м/с5 %
    07:00Ясно и безоблачно+18°C85 %747 мм2.1 м/с5 %
    10:00Ясно и безоблачно+25°C60 %748 мм2.1 м/с5 %
    13:00Ясно и безоблачно+29°C46 %746 мм2.2 м/с5 %
    16:00Ясно и безоблачно+29°C52 %744 мм1.4 м/с5 %
    19:00Ясно и безоблачно+27°C80 %744 мм1.8 м/с5 %
    22:00Ясно и безоблачно+20°C90 %745 мм1.9 м/с5 %
Мы используем cookies
Соглашаюсь